createdAt,value
2024-01-19T00:00:50.591Z,98771.41
2024-01-19T00:03:18.277Z,98767.09
2024-01-19T00:05:46.130Z,98777.38
2024-01-19T00:08:13.931Z,98773.97
2024-01-19T00:10:41.629Z,98783.38
2024-01-19T00:13:09.276Z,98785.94
2024-01-19T00:15:42.184Z,98803.16
2024-01-19T00:18:13.004Z,98802.31
2024-01-19T00:20:40.664Z,98806.66
2024-01-19T00:23:08.282Z,98805.00
2024-01-19T00:25:35.908Z,98807.50
2024-01-19T00:28:03.516Z,98809.06
2024-01-19T00:30:31.492Z,98813.34
2024-01-19T00:32:59.317Z,98809.13
2024-01-19T00:35:28.363Z,98818.47
2024-01-19T00:37:55.988Z,98820.22
2024-01-19T00:40:24.216Z,98817.66
2024-01-19T00:42:51.890Z,98822.72
2024-01-19T00:45:19.548Z,98816.69
2024-01-19T00:47:47.247Z,98818.50
2024-01-19T00:50:15.201Z,98824.59
2024-01-19T00:52:44.209Z,98828.88
2024-01-19T00:55:12.715Z,98834.03
2024-01-19T00:57:40.404Z,98840.97
2024-01-19T01:00:10.039Z,98834.16
2024-01-19T01:02:37.691Z,98844.47
2024-01-19T01:05:06.310Z,98839.22
2024-01-19T01:07:33.965Z,98840.09
2024-01-19T01:10:03.498Z,98842.69
2024-01-19T01:12:31.159Z,98852.97
2024-01-19T01:14:58.862Z,98852.94
2024-01-19T01:17:26.564Z,98857.19
2024-01-19T01:19:54.273Z,98858.78
2024-01-19T01:22:21.903Z,98867.44
2024-01-19T01:24:49.490Z,98870.00
2024-01-19T01:27:18.499Z,98870.00
2024-01-19T01:29:46.179Z,98879.56
2024-01-19T01:32:13.889Z,98886.34
2024-01-19T01:34:41.545Z,98887.28
2024-01-19T01:37:09.191Z,98891.59
2024-01-19T01:39:36.851Z,98900.13
2024-01-19T01:42:04.866Z,98911.31
2024-01-19T01:44:33.911Z,98916.50
2024-01-19T01:47:00.705Z,98924.16
2024-01-19T01:49:28.601Z,98936.28
2024-01-19T01:51:56.908Z,98936.25
2024-01-19T01:54:24.603Z,98934.50
2024-01-19T01:56:52.917Z,98943.06
2024-01-19T01:59:21.250Z,98944.81
2024-01-19T02:01:50.546Z,98946.53
2024-01-19T02:04:18.223Z,98947.34
2024-01-19T02:06:46.094Z,98948.09
2024-01-19T02:09:14.613Z,98952.47
2024-01-19T02:11:42.414Z,98952.47
2024-01-19T02:14:11.730Z,98945.47
2024-01-19T02:16:39.519Z,98948.91
2024-01-19T02:19:08.655Z,98947.22
2024-01-19T02:21:36.344Z,98954.16
2024-01-19T02:24:05.538Z,98962.72
2024-01-19T02:26:36.015Z,98972.09
2024-01-19T02:29:04.203Z,98962.75
2024-01-19T02:31:32.084Z,98972.97
2024-01-19T02:33:59.826Z,98970.31
2024-01-19T02:36:27.538Z,98963.47
2024-01-19T02:38:55.239Z,98973.78
2024-01-19T02:41:23.026Z,98973.78
2024-01-19T02:43:52.052Z,98964.28
2024-01-19T02:46:21.703Z,98986.66
2024-01-19T02:48:49.441Z,98984.16
2024-01-19T02:51:17.368Z,98981.56
2024-01-19T02:53:44.990Z,98987.47
2024-01-19T02:56:12.715Z,98988.41
2024-01-19T02:58:40.342Z,98984.16
2024-01-19T03:01:11.151Z,98981.44
2024-01-19T03:03:38.971Z,98980.63
2024-01-19T03:06:07.288Z,98982.28
2024-01-19T03:08:35.004Z,98986.38
2024-01-19T03:11:02.692Z,98984.56
2024-01-19T03:13:30.336Z,98983.66
2024-01-19T03:15:59.187Z,98983.56
2024-01-19T03:18:28.718Z,98980.88
2024-01-19T03:20:56.539Z,98980.06
2024-01-19T03:23:24.256Z,98979.47
2024-01-19T03:25:52.573Z,98972.50
2024-01-19T03:28:20.183Z,98976.91
2024-01-19T03:30:47.849Z,98984.72
2024-01-19T03:33:15.674Z,98988.97
2024-01-19T03:35:44.888Z,98990.56
2024-01-19T03:38:14.641Z,99000.00
2024-01-19T03:40:42.265Z,98993.13
2024-01-19T03:43:09.949Z,99004.97
2024-01-19T03:45:37.607Z,99011.13
2024-01-19T03:48:05.654Z,99021.53
2024-01-19T03:50:33.606Z,99011.19
2024-01-19T03:53:02.624Z,99013.81
2024-01-19T03:55:30.265Z,99011.81
2024-01-19T03:57:57.926Z,99008.34
2024-01-19T04:00:25.591Z,99010.06
2024-01-19T04:02:53.531Z,99013.63
2024-01-19T04:05:22.863Z,99020.44
2024-01-19T04:07:50.576Z,99028.22
2024-01-19T04:10:19.578Z,99023.13
2024-01-19T04:12:47.184Z,99029.81
2024-01-19T04:15:14.825Z,99028.09
2024-01-19T04:17:42.584Z,99024.50
2024-01-19T04:20:10.804Z,99028.16
2024-01-19T04:22:38.489Z,99042.81
2024-01-19T04:25:06.972Z,99033.53
2024-01-19T04:27:35.992Z,99043.81
2024-01-19T04:30:03.777Z,99049.06
2024-01-19T04:32:31.677Z,99048.13
2024-01-19T04:34:59.366Z,99041.09
2024-01-19T04:37:26.997Z,99031.56
2024-01-19T04:39:54.642Z,99030.81
2024-01-19T04:42:22.383Z,99032.56
2024-01-19T04:44:52.557Z,99044.47
2024-01-19T04:47:20.303Z,99054.78
2024-01-19T04:49:48.051Z,99045.47
2024-01-19T04:52:15.789Z,99050.34
2024-01-19T04:54:43.468Z,99054.53
2024-01-19T04:57:11.179Z,99053.69
2024-01-19T04:59:38.888Z,99064.56
2024-01-19T05:02:07.843Z,99063.81
2024-01-19T05:04:35.685Z,99059.72
2024-01-19T05:07:03.414Z,99057.06
2024-01-19T05:09:31.030Z,99059.88
2024-01-19T05:11:58.731Z,99072.53
2024-01-19T05:14:26.476Z,99071.72
2024-01-19T05:16:54.147Z,99080.88
2024-01-19T05:19:23.152Z,99076.53
2024-01-19T05:21:50.972Z,99082.53
2024-01-19T05:24:19.319Z,99078.41
2024-01-19T05:26:46.991Z,99086.13
2024-01-19T05:29:14.641Z,99092.03
2024-01-19T05:31:42.291Z,99093.66
2024-01-19T05:34:10.129Z,99099.81
2024-01-19T05:36:39.211Z,99105.09
2024-01-19T05:39:07.097Z,99113.63
2024-01-19T05:41:35.011Z,99113.72
2024-01-19T05:44:02.722Z,99120.50
2024-01-19T05:46:30.351Z,99123.66
2024-01-19T05:48:58.011Z,99125.28
2024-01-19T05:51:25.827Z,99134.69
2024-01-19T05:53:54.903Z,99137.84
2024-01-19T05:56:22.629Z,99147.94
2024-01-19T05:58:50.291Z,99144.22
2024-01-19T06:01:18.217Z,99157.88
2024-01-19T06:03:45.868Z,99157.22
2024-01-19T06:06:13.618Z,99170.00
2024-01-19T06:08:41.334Z,99174.38
2024-01-19T06:11:10.686Z,99175.00
2024-01-19T06:13:40.773Z,99183.59
2024-01-19T06:16:08.497Z,99186.25
2024-01-19T06:18:36.337Z,99170.56
2024-01-19T06:21:04.265Z,99192.94
2024-01-19T06:23:32.015Z,99197.22
2024-01-19T06:25:59.820Z,99205.91
2024-01-19T06:28:28.914Z,99215.97
2024-01-19T06:30:56.541Z,99210.88
2024-01-19T06:33:24.227Z,99218.63
2024-01-19T06:35:51.361Z,99216.19
2024-01-19T06:38:19.082Z,99223.91
2024-01-19T06:40:47.519Z,99225.53
2024-01-19T06:43:15.172Z,99230.66
2024-01-19T06:45:44.146Z,99239.41
2024-01-19T06:48:11.983Z,99240.25
2024-01-19T06:50:40.083Z,99242.78
2024-01-19T06:53:08.380Z,99245.88
2024-01-19T06:55:36.010Z,99248.97
2024-01-19T06:58:03.785Z,99253.00
2024-01-19T07:00:31.538Z,99256.59
2024-01-19T07:05:28.722Z,99262.69
2024-01-19T07:07:58.991Z,99266.84
2024-01-19T07:10:27.010Z,99274.97
2024-01-19T07:12:54.572Z,99276.75
2024-01-19T07:15:22.197Z,99275.78
2024-01-19T07:17:49.944Z,99280.97
2024-01-19T07:20:19.287Z,99283.56
2024-01-19T07:22:46.942Z,99287.69
2024-01-19T07:25:14.854Z,99298.09
2024-01-19T07:27:42.492Z,99298.72
2024-01-19T07:30:10.776Z,99302.31
2024-01-19T07:32:51.815Z,99305.13
2024-01-19T07:35:27.517Z,99303.50
2024-01-19T07:37:55.355Z,99307.22
2024-01-19T07:40:22.993Z,99302.28
2024-01-19T07:42:50.778Z,99303.53
2024-01-19T07:45:18.510Z,99313.16
2024-01-19T07:47:46.159Z,99298.72
2024-01-19T07:50:13.894Z,99310.28
2024-01-19T07:52:42.964Z,99303.66
2024-01-19T07:55:10.656Z,99315.06
2024-01-19T07:57:38.659Z,99321.22
2024-01-19T08:00:07.926Z,99319.16
2024-01-19T08:02:35.749Z,99326.03
2024-01-19T08:05:03.424Z,99329.66
2024-01-19T08:07:31.034Z,99321.78
2024-01-19T08:10:00.303Z,99334.84
2024-01-19T08:12:28.103Z,99330.50
2024-01-19T08:14:58.251Z,99337.69
2024-01-19T08:17:26.059Z,99334.44
2024-01-19T08:19:53.784Z,99337.44
2024-01-19T08:22:21.553Z,99340.94
2024-01-19T08:24:49.239Z,99353.38
2024-01-19T08:27:18.262Z,99349.00
2024-01-19T08:29:47.680Z,99362.19
2024-01-19T08:32:15.578Z,99369.94
2024-01-19T08:34:44.828Z,99372.38
2024-01-19T08:37:12.499Z,99384.78
2024-01-19T08:39:40.116Z,99384.59
2024-01-19T08:42:08.202Z,99392.34
2024-01-19T08:44:37.199Z,99397.44
2024-01-19T08:47:05.342Z,99400.69
2024-01-19T08:49:33.075Z,99411.88
2024-01-19T08:52:00.741Z,99416.28
2024-01-19T08:54:28.353Z,99415.16
2024-01-19T08:56:58.677Z,99427.19
2024-01-19T08:59:27.395Z,99423.84
2024-01-19T09:01:57.773Z,99433.25
2024-01-19T09:04:25.659Z,99445.31
2024-01-19T09:06:54.538Z,99450.50
2024-01-19T09:09:22.203Z,99454.88
2024-01-19T09:11:49.875Z,99453.84
2024-01-19T09:14:17.540Z,99448.69
2024-01-19T09:16:45.518Z,99452.00
2024-01-19T09:19:14.917Z,99453.66
2024-01-19T09:21:45.388Z,99457.16
2024-01-19T09:24:13.391Z,99457.31
2024-01-19T09:26:41.389Z,99457.19
2024-01-19T09:29:11.211Z,99475.78
2024-01-19T09:31:43.050Z,99475.72
2024-01-19T09:34:10.844Z,99479.97
2024-01-19T09:36:40.681Z,99484.25
2024-01-19T09:39:08.474Z,99502.69
2024-01-19T09:41:39.625Z,99501.78
2024-01-19T09:44:10.101Z,99504.50
2024-01-19T09:46:49.499Z,99514.66
2024-01-19T09:49:25.342Z,99519.06
2024-01-19T09:51:58.514Z,99518.22
2024-01-19T09:54:34.608Z,99516.59
2024-01-19T09:57:02.577Z,99517.69
2024-01-19T09:59:32.770Z,99520.25
2024-01-19T10:02:01.013Z,99514.44
2024-01-19T10:04:29.235Z,99519.63
2024-01-19T10:06:58.339Z,99524.88
2024-01-19T10:09:26.286Z,99525.13
2024-01-19T10:11:55.981Z,99533.75
2024-01-19T10:14:26.966Z,99547.00
2024-01-19T10:16:54.785Z,99548.75
2024-01-19T10:19:22.659Z,99551.41
2024-01-19T10:21:52.154Z,99542.91
2024-01-19T10:24:22.118Z,99543.63
2024-01-19T10:26:53.747Z,99547.16
2024-01-19T10:29:22.343Z,99553.16
2024-01-19T10:31:50.926Z,99555.91
2024-01-19T10:34:19.566Z,99553.22
2024-01-19T10:36:48.136Z,99560.97
2024-01-19T10:39:22.342Z,99562.84
2024-01-19T10:41:51.772Z,99570.53
2024-01-19T10:44:22.422Z,99571.63
2024-01-19T10:46:51.430Z,99574.19
2024-01-19T10:49:20.173Z,99565.59
2024-01-19T10:51:48.707Z,99569.84
2024-01-19T10:54:26.723Z,99573.69
2024-01-19T10:57:05.075Z,99577.03
2024-01-19T10:59:32.862Z,99582.34
2024-01-19T11:02:02.119Z,99582.41
2024-01-19T11:04:29.908Z,99587.50
2024-01-19T11:06:58.049Z,99582.28
2024-01-19T11:09:27.224Z,99594.47
2024-01-19T11:11:56.687Z,99593.69
2024-01-19T11:14:25.162Z,99598.13
2024-01-19T11:16:54.712Z,99596.28
2024-01-19T11:19:24.494Z,99590.88
2024-01-19T11:21:52.195Z,99591.06
2024-01-19T11:24:21.820Z,99585.03
2024-01-19T11:26:56.784Z,99585.13
2024-01-19T11:29:29.804Z,99595.50
2024-01-19T11:31:57.643Z,99597.31
2024-01-19T11:34:44.851Z,99592.25
2024-01-19T11:37:40.838Z,99600.81
2024-01-19T11:40:09.244Z,99599.09
2024-01-19T11:42:47.983Z,99606.00
2024-01-19T11:45:41.302Z,99598.25
2024-01-19T11:48:10.334Z,99610.41
2024-01-19T11:50:42.268Z,99607.75
2024-01-19T11:53:10.166Z,99601.75
2024-01-19T11:55:46.712Z,99618.22
2024-01-19T11:58:36.194Z,99621.63
2024-01-19T12:01:05.642Z,99598.38
2024-01-19T12:03:33.565Z,99612.22
2024-01-19T12:06:02.453Z,99609.69
2024-01-19T12:08:30.667Z,99607.81
2024-01-19T12:11:09.743Z,99612.16
2024-01-19T12:13:46.258Z,99616.56
2024-01-19T12:16:21.936Z,99623.38
2024-01-19T12:18:55.254Z,99627.75
2024-01-19T12:21:32.525Z,99615.72
2024-01-19T12:28:06.526Z,99615.53
2024-01-19T12:30:45.848Z,99625.16
2024-01-19T12:33:17.998Z,99626.03
2024-01-19T12:35:47.237Z,99635.56
2024-01-19T12:38:15.923Z,99616.59
2024-01-19T12:40:44.511Z,99609.66
2024-01-19T12:43:12.434Z,99614.06
2024-01-19T12:45:41.605Z,99616.59
2024-01-19T12:48:21.229Z,99621.84
2024-01-19T12:50:53.375Z,99608.81
2024-01-19T12:53:21.090Z,99611.38
2024-01-19T12:55:52.822Z,99613.16
2024-01-19T12:58:24.358Z,99607.03
2024-01-19T13:00:53.458Z,99613.97
2024-01-19T13:03:22.330Z,99614.84
2024-01-19T13:05:50.111Z,99604.47
2024-01-19T13:08:21.260Z,99609.66
2024-01-19T13:10:49.779Z,99608.00
2024-01-19T13:13:19.200Z,99604.53
2024-01-19T13:15:47.043Z,99602.75
2024-01-19T13:18:19.194Z,99614.91
2024-01-19T13:20:47.212Z,99626.09
2024-01-19T13:23:15.410Z,99626.06
2024-01-19T13:25:53.580Z,99626.97
2024-01-19T13:28:21.242Z,99623.44
2024-01-19T13:30:50.471Z,99628.69
2024-01-19T13:33:19.606Z,99625.19
2024-01-19T13:35:48.861Z,99619.13
2024-01-19T13:38:16.551Z,99623.41
2024-01-19T13:40:44.137Z,99632.91
2024-01-19T13:43:11.812Z,99629.56
2024-01-19T13:45:39.490Z,99634.75
2024-01-19T13:48:08.108Z,99645.88
2024-01-19T13:50:37.168Z,99634.75
2024-01-19T13:53:05.109Z,99648.50
2024-01-19T13:55:32.775Z,99652.72
2024-01-19T13:58:00.533Z,99646.72
2024-01-19T14:00:28.159Z,99641.59
2024-01-19T14:02:55.830Z,99645.84
2024-01-19T14:05:23.547Z,99648.47
2024-01-19T14:07:56.066Z,99627.69
2024-01-19T14:10:25.012Z,99651.06
2024-01-19T14:12:52.857Z,99652.75
2024-01-19T14:15:20.544Z,99657.88
2024-01-19T14:17:48.261Z,99662.19
2024-01-19T14:20:16.117Z,99660.38
2024-01-19T14:22:44.231Z,99664.78
2024-01-19T14:25:13.269Z,99662.97
2024-01-19T14:27:42.143Z,99674.97
2024-01-19T14:30:10.647Z,99664.63
2024-01-19T14:32:39.853Z,99664.44
2024-01-19T14:35:08.317Z,99666.94
2024-01-19T14:37:36.175Z,99674.75
2024-01-19T14:40:05.849Z,99676.38
2024-01-19T14:42:34.833Z,99679.91
2024-01-19T14:45:02.512Z,99680.75
2024-01-19T14:47:30.109Z,99698.78
2024-01-19T14:50:01.028Z,99692.91
2024-01-19T14:52:29.297Z,99694.53
2024-01-19T14:54:59.565Z,99706.53
2024-01-19T14:57:27.319Z,99695.38
2024-01-19T14:59:56.291Z,99704.72
2024-01-19T15:02:23.958Z,99708.16
2024-01-19T15:04:52.697Z,99720.16
2024-01-19T15:07:20.431Z,99721.91
2024-01-19T15:09:48.151Z,99719.38
2024-01-19T15:12:15.773Z,99720.16
2024-01-19T15:14:43.410Z,99724.38
2024-01-19T15:17:12.440Z,99733.69
2024-01-19T15:19:40.204Z,99741.56
2024-01-19T15:22:07.956Z,99742.97
2024-01-19T15:24:35.612Z,99746.41
2024-01-19T15:27:03.271Z,99749.03
2024-01-19T15:29:31.065Z,99754.97
2024-01-19T15:31:58.928Z,99753.91
2024-01-19T15:34:28.066Z,99755.63
2024-01-19T15:36:55.940Z,99761.44
2024-01-19T15:39:23.682Z,99763.03
2024-01-19T15:41:51.386Z,99770.75
2024-01-19T15:44:19.056Z,99766.38
2024-01-19T15:46:46.878Z,99764.63
2024-01-19T15:49:14.580Z,99771.59
2024-01-19T15:51:43.635Z,99774.03
2024-01-19T15:54:11.371Z,99787.97
2024-01-19T15:56:39.234Z,99781.75
2024-01-19T15:59:07.756Z,99788.47
2024-01-19T16:01:36.207Z,99782.72
2024-01-19T16:04:05.135Z,99799.94
2024-01-19T16:06:33.532Z,99806.78
2024-01-19T16:09:03.046Z,99810.84
2024-01-19T16:11:31.144Z,99810.94
2024-01-19T16:13:58.955Z,99813.94
2024-01-19T16:16:26.672Z,99825.97
2024-01-19T16:18:54.429Z,99832.00
2024-01-19T16:21:23.651Z,99841.53
2024-01-19T16:23:51.735Z,99847.16
2024-01-19T16:26:21.997Z,99841.00
2024-01-19T16:28:50.243Z,99855.00
2024-01-19T16:31:18.054Z,99844.06
2024-01-19T16:33:46.929Z,99853.25
2024-01-19T16:36:14.840Z,99852.81
2024-01-19T16:38:43.749Z,99868.84
2024-01-19T16:41:11.706Z,99854.09
2024-01-19T16:43:40.804Z,99859.25
2024-01-19T16:46:08.575Z,99865.44
2024-01-19T16:48:36.317Z,99871.28
2024-01-19T16:51:04.982Z,99876.38
2024-01-19T16:53:32.923Z,99876.41
2024-01-19T16:56:02.016Z,99872.00
2024-01-19T16:58:29.776Z,99877.22
2024-01-19T17:00:58.923Z,99886.75
2024-01-19T17:03:26.723Z,99899.75
2024-01-19T17:05:54.569Z,99902.31
2024-01-19T17:08:22.392Z,99898.06
2024-01-19T17:10:50.144Z,99911.03
2024-01-19T17:13:17.820Z,99904.81
2024-01-19T17:15:45.662Z,99906.56
2024-01-19T17:18:15.420Z,99909.94
2024-01-19T17:20:43.192Z,99895.31
2024-01-19T17:23:11.045Z,99916.81
2024-01-19T17:25:39.162Z,99921.84
2024-01-19T17:28:08.454Z,99917.44
2024-01-19T17:30:41.449Z,99921.03
2024-01-19T17:33:09.599Z,99916.78
2024-01-19T17:35:39.435Z,99907.78
2024-01-19T17:38:07.282Z,99918.00
2024-01-19T17:40:35.042Z,99915.19
2024-01-19T17:43:05.809Z,99918.56
2024-01-19T17:45:33.621Z,99918.34
2024-01-19T17:48:01.346Z,99918.47
2024-01-19T17:50:29.078Z,99920.81
2024-01-19T17:52:58.246Z,99925.03
2024-01-19T17:55:25.956Z,99921.38
2024-01-19T17:57:53.665Z,99933.38
2024-01-19T18:00:21.526Z,99930.84
2024-01-19T18:02:49.305Z,99944.53
2024-01-19T18:05:17.382Z,99953.28
2024-01-19T18:07:45.523Z,99954.03
2024-01-19T18:10:14.692Z,99950.72
2024-01-19T18:12:42.444Z,99947.50
2024-01-19T18:15:11.138Z,99954.53
2024-01-19T18:17:39.080Z,99949.97
2024-01-19T18:20:09.809Z,99961.66
2024-01-19T18:22:37.719Z,99960.09
2024-01-19T18:25:06.145Z,99972.06
2024-01-19T18:27:35.261Z,99976.50
2024-01-19T18:30:03.295Z,99971.09
2024-01-19T18:32:31.716Z,99978.47
2024-01-19T18:35:00.189Z,99977.66
2024-01-19T18:37:27.964Z,99990.28
2024-01-19T18:39:55.692Z,99989.53
2024-01-19T18:42:23.424Z,99990.03
2024-01-19T18:44:52.568Z,99974.34
2024-01-19T18:47:21.641Z,100006.38
2024-01-19T18:49:50.635Z,99999.59
2024-01-19T18:52:22.835Z,99993.97
2024-01-19T18:54:51.040Z,100000.28
2024-01-19T18:57:19.138Z,100007.41
2024-01-19T18:59:47.096Z,100009.22
2024-01-19T19:02:17.941Z,100011.69
2024-01-19T19:04:45.769Z,100014.44
2024-01-19T19:07:13.756Z,100015.88
2024-01-19T19:09:41.594Z,100043.19
2024-01-19T19:12:09.504Z,100043.56
2024-01-19T19:14:37.339Z,100041.34
2024-01-19T19:17:05.487Z,100046.97
2024-01-19T19:19:34.872Z,100049.56
2024-01-19T19:22:02.610Z,100056.09
2024-01-19T19:24:30.505Z,100055.53
2024-01-19T19:26:58.189Z,100053.25
2024-01-19T19:29:25.888Z,100067.72
2024-01-19T19:31:53.684Z,100072.25
2024-01-19T19:34:22.878Z,100078.50
2024-01-19T19:36:54.650Z,100073.66
2024-01-19T19:39:22.304Z,100064.63
2024-01-19T19:41:50.069Z,100081.22
2024-01-19T19:44:18.004Z,100079.50
2024-01-19T19:46:45.881Z,100081.13
2024-01-19T19:49:13.743Z,100090.47
2024-01-19T19:51:41.450Z,100095.06
2024-01-19T19:54:10.500Z,100095.16
2024-01-19T19:56:38.643Z,100092.56
2024-01-19T19:59:06.894Z,100099.53
2024-01-19T20:01:34.724Z,100094.13
2024-01-19T20:04:02.426Z,100096.50
2024-01-19T20:06:30.098Z,100097.25
2024-01-19T20:08:57.970Z,100083.31
2024-01-19T20:11:27.208Z,100093.22
2024-01-19T20:13:55.003Z,100096.06
2024-01-19T20:16:24.494Z,100089.44
2024-01-19T20:18:54.834Z,100088.03
2024-01-19T20:21:22.521Z,100096.94
2024-01-19T20:23:50.222Z,100092.13
2024-01-19T20:26:18.672Z,100092.31
2024-01-19T20:28:48.512Z,100088.41
2024-01-19T20:31:16.540Z,100097.31
2024-01-19T20:33:44.245Z,100099.34
2024-01-19T20:36:11.984Z,100096.75
2024-01-19T20:38:39.752Z,100093.94
2024-01-19T20:41:10.272Z,100099.22
2024-01-19T20:43:38.036Z,100090.44
2024-01-19T20:46:07.085Z,100100.75
2024-01-19T20:48:35.033Z,100105.16
2024-01-19T20:51:02.768Z,100094.47
2024-01-19T20:53:30.357Z,100100.00
2024-01-19T20:55:58.069Z,100114.28
2024-01-19T20:58:28.318Z,100119.13
2024-01-19T21:00:56.479Z,100121.84
2024-01-19T21:03:25.961Z,100116.22
2024-01-19T21:05:53.829Z,100120.09
2024-01-19T21:08:27.654Z,100114.13
2024-01-19T21:10:58.287Z,100112.69
2024-01-19T21:13:28.631Z,100106.47
2024-01-19T21:15:56.418Z,100121.84
2024-01-19T21:18:24.518Z,100107.34
2024-01-19T21:20:55.012Z,100109.88
2024-01-19T21:23:25.340Z,100101.19
2024-01-19T21:25:54.281Z,100109.28
2024-01-19T21:28:22.120Z,100112.13
2024-01-19T21:30:49.766Z,100119.00
2024-01-19T21:33:17.450Z,100120.56
2024-01-19T21:35:45.155Z,100125.25
2024-01-19T21:38:16.722Z,100128.38
2024-01-19T21:40:44.722Z,100131.31
2024-01-19T21:43:12.636Z,100134.56
2024-01-19T21:45:40.326Z,100135.34
2024-01-19T21:48:08.222Z,100142.06
2024-01-19T21:50:36.343Z,100137.88
2024-01-19T21:53:06.460Z,100146.69
2024-01-19T21:55:35.722Z,100136.38
2024-01-19T21:58:03.562Z,100149.09
2024-01-19T22:00:31.486Z,100147.75
2024-01-19T22:02:59.264Z,100145.94
2024-01-19T22:05:27.978Z,100145.94
2024-01-19T22:07:55.775Z,100150.84
2024-01-19T22:10:23.923Z,100148.34
2024-01-19T22:12:53.056Z,100166.13
2024-01-19T22:15:20.882Z,100166.47
2024-01-19T22:17:48.660Z,100161.63
2024-01-19T22:20:16.496Z,100161.81
2024-01-19T22:22:44.249Z,100164.97
2024-01-19T22:25:12.044Z,100169.44
2024-01-19T22:27:39.852Z,100178.41
2024-01-19T22:30:09.980Z,100186.88
2024-01-19T22:32:43.207Z,100195.50
2024-01-19T22:35:11.524Z,100181.63
2024-01-19T22:37:39.925Z,100189.28
2024-01-19T22:40:10.209Z,100188.94
2024-01-19T22:42:38.138Z,100187.69
2024-01-19T22:45:06.925Z,100189.59
2024-01-19T22:47:35.949Z,100190.03
2024-01-19T22:50:04.682Z,100199.66
2024-01-19T22:52:32.619Z,100197.81
2024-01-19T22:55:00.703Z,100198.56
2024-01-19T22:57:28.472Z,100205.63
2024-01-19T22:59:57.418Z,100200.47
2024-01-19T23:02:27.284Z,100210.97
2024-01-19T23:04:56.498Z,100206.13
2024-01-19T23:07:24.677Z,100197.81
2024-01-19T23:09:52.385Z,100206.66
2024-01-19T23:12:20.034Z,100204.66
2024-01-19T23:14:47.973Z,100201.69
2024-01-19T23:17:15.693Z,100196.16
2024-01-19T23:19:43.726Z,100185.88
2024-01-19T23:22:12.924Z,100195.50
2024-01-19T23:24:40.661Z,100195.63
2024-01-19T23:27:08.387Z,100193.88
2024-01-19T23:29:36.172Z,100191.38
2024-01-19T23:32:07.238Z,100187.88
2024-01-19T23:34:36.149Z,100190.59
2024-01-19T23:37:04.719Z,100194.91
2024-01-19T23:39:33.880Z,100199.44
2024-01-19T23:42:01.778Z,100202.03
2024-01-19T23:44:29.442Z,100203.53
2024-01-19T23:46:57.159Z,100201.03
2024-01-19T23:49:27.529Z,100206.16
2024-01-19T23:51:56.320Z,100203.22
2024-01-19T23:54:23.940Z,100203.91
2024-01-19T23:56:53.833Z,100210.38
2024-01-19T23:59:21.435Z,100209.81
